createdAt,value
2023-10-07T00:01:37.377Z,6.93
2023-10-07T00:04:13.376Z,7.05
2023-10-07T00:06:50.074Z,7.72
2023-10-07T00:09:25.016Z,7.35
2023-10-07T00:11:57.399Z,6.18
2023-10-07T00:14:34.022Z,7.30
2023-10-07T00:17:11.483Z,6.97
2023-10-07T00:19:46.375Z,7.65
2023-10-07T00:22:24.680Z,6.90
2023-10-07T00:24:57.947Z,7.03
2023-10-07T00:27:42.479Z,7.47
2023-10-07T00:30:32.446Z,6.93
2023-10-07T00:33:14.387Z,8.45
2023-10-07T00:35:53.757Z,6.95
2023-10-07T00:38:46.515Z,6.88
2023-10-07T00:41:23.344Z,7.68
2023-10-07T00:44:02.674Z,8.88
2023-10-07T00:46:37.777Z,7.22
2023-10-07T00:49:18.491Z,8.38
2023-10-07T00:51:56.782Z,8.38
2023-10-07T00:54:52.027Z,7.88
2023-10-07T00:57:38.003Z,8.10
2023-10-07T01:00:36.939Z,8.75
2023-10-07T01:03:20.218Z,7.13
2023-10-07T01:06:11.846Z,7.63
2023-10-07T01:08:53.721Z,6.88
2023-10-07T01:11:32.601Z,8.75
2023-10-07T01:14:07.734Z,9.05
2023-10-07T01:16:45.085Z,8.18
2023-10-07T01:19:33.036Z,7.78
2023-10-07T01:22:12.203Z,8.88
2023-10-07T01:24:52.726Z,8.63
2023-10-07T01:27:37.517Z,8.43
2023-10-07T01:30:18.162Z,8.15
2023-10-07T01:33:04.011Z,8.18
2023-10-07T01:35:40.018Z,8.55
2023-10-07T01:38:09.822Z,9.02
2023-10-07T01:40:56.910Z,8.05
2023-10-07T01:43:28.173Z,8.00
2023-10-07T01:45:57.467Z,9.63
2023-10-07T01:48:29.272Z,9.40
2023-10-07T01:51:00.083Z,9.15
2023-10-07T01:53:29.481Z,9.50
2023-10-07T01:56:06.466Z,7.88
2023-10-07T01:58:37.424Z,8.05
2023-10-07T02:01:07.445Z,9.40
2023-10-07T02:03:36.594Z,8.85
2023-10-07T02:06:06.993Z,9.15
2023-10-07T02:08:38.495Z,7.93
2023-10-07T02:11:08.210Z,10.13
2023-10-07T02:13:39.657Z,9.10
2023-10-07T02:16:09.244Z,8.38
2023-10-07T02:18:37.633Z,7.10
2023-10-07T02:21:09.496Z,8.70
2023-10-07T02:23:41.527Z,8.20
2023-10-07T02:26:15.880Z,8.73
2023-10-07T02:28:45.285Z,8.38
2023-10-07T02:31:18.230Z,8.82
2023-10-07T02:33:47.557Z,9.23
2023-10-07T02:36:29.215Z,9.15
2023-10-07T02:39:02.298Z,7.78
2023-10-07T02:41:32.780Z,8.93
2023-10-07T02:44:06.256Z,8.75
2023-10-07T02:46:35.140Z,7.65
2023-10-07T02:49:06.325Z,8.57
2023-10-07T02:51:41.375Z,8.90
2023-10-07T02:54:18.785Z,8.10
2023-10-07T02:56:55.835Z,8.05
2023-10-07T02:59:29.018Z,7.93
2023-10-07T03:02:14.683Z,8.18
2023-10-07T03:04:43.634Z,8.02
2023-10-07T03:07:18.110Z,9.02
2023-10-07T03:09:54.106Z,8.45
2023-10-07T03:12:29.625Z,7.47
2023-10-07T03:15:03.054Z,7.65
2023-10-07T03:17:39.430Z,8.10
2023-10-07T03:20:22.450Z,8.23
2023-10-07T03:23:04.951Z,9.07
2023-10-07T03:25:49.587Z,8.73
2023-10-07T03:28:19.831Z,7.57
2023-10-07T03:30:52.616Z,8.85
2023-10-07T03:33:24.993Z,9.45
2023-10-07T03:36:09.996Z,8.60
2023-10-07T03:38:40.140Z,9.63
2023-10-07T03:41:10.917Z,8.57
2023-10-07T03:43:42.619Z,9.52
2023-10-07T03:46:10.779Z,9.15
2023-10-07T03:48:40.779Z,8.32
2023-10-07T03:51:09.790Z,8.18
2023-10-07T03:53:45.728Z,8.05
2023-10-07T03:56:14.417Z,8.27
2023-10-07T03:58:44.518Z,8.85
2023-10-07T04:01:19.385Z,10.10
2023-10-07T04:03:49.192Z,9.55
2023-10-07T04:06:18.523Z,9.82
2023-10-07T04:08:54.015Z,9.10
2023-10-07T04:11:27.820Z,8.93
2023-10-07T04:13:57.885Z,9.57
2023-10-07T04:16:28.478Z,8.93
2023-10-07T04:19:07.953Z,9.50
2023-10-07T04:21:40.905Z,8.73
2023-10-07T04:24:12.267Z,9.48
2023-10-07T04:26:41.517Z,8.70
2023-10-07T04:29:16.388Z,8.98
2023-10-07T04:31:48.842Z,10.00
2023-10-07T04:34:18.225Z,9.45
2023-10-07T04:37:12.099Z,9.07
2023-10-07T04:39:54.484Z,9.35
2023-10-07T04:42:22.768Z,9.02
2023-10-07T04:45:19.018Z,9.25
2023-10-07T04:47:48.954Z,8.43
2023-10-07T04:50:17.084Z,8.07
2023-10-07T04:52:52.050Z,9.10
2023-10-07T04:55:27.430Z,8.55
2023-10-07T04:57:58.312Z,8.52
2023-10-07T05:00:38.270Z,9.50
2023-10-07T05:03:12.350Z,8.77
2023-10-07T05:05:44.486Z,8.13
2023-10-07T05:08:12.550Z,9.13
2023-10-07T05:10:43.018Z,7.72
2023-10-07T05:13:11.746Z,8.98
2023-10-07T05:15:43.385Z,8.27
2023-10-07T05:18:14.340Z,9.05
2023-10-07T05:20:43.237Z,8.18
2023-10-07T05:23:15.519Z,8.70
2023-10-07T05:25:49.699Z,8.20
2023-10-07T05:28:21.998Z,7.78
2023-10-07T05:30:53.128Z,7.95
2023-10-07T05:33:25.889Z,7.45
2023-10-07T05:35:59.539Z,8.30
2023-10-07T05:38:27.631Z,8.85
2023-10-07T05:40:56.144Z,8.35
2023-10-07T05:43:24.331Z,7.15
2023-10-07T05:45:54.665Z,7.18
2023-10-07T05:48:22.794Z,7.50
2023-10-07T05:50:50.892Z,7.28
2023-10-07T05:53:18.978Z,6.28
2023-10-07T05:55:49.571Z,7.18
2023-10-07T05:58:21.542Z,6.65
2023-10-07T06:00:49.678Z,7.55
2023-10-07T06:03:19.192Z,7.85
2023-10-07T06:05:47.372Z,6.28
2023-10-07T06:08:16.604Z,7.20
2023-10-07T06:10:53.121Z,7.55
2023-10-07T06:13:21.179Z,10.13
2023-10-07T06:15:49.362Z,10.30
2023-10-07T06:18:19.973Z,9.20
2023-10-07T06:20:48.737Z,7.20
2023-10-07T06:23:17.665Z,7.95
2023-10-07T06:25:50.317Z,7.82
2023-10-07T06:28:30.972Z,6.68
2023-10-07T06:31:11.554Z,6.85
2023-10-07T06:33:41.763Z,7.93
2023-10-07T06:36:11.474Z,7.40
2023-10-07T06:38:46.342Z,7.32
2023-10-07T06:41:14.834Z,7.90
2023-10-07T06:43:44.172Z,7.97
2023-10-07T06:46:13.340Z,6.93
2023-10-07T06:48:44.368Z,8.65
2023-10-07T06:51:12.661Z,6.63
2023-10-07T06:53:44.256Z,8.32
2023-10-07T06:56:22.492Z,7.63
2023-10-07T06:58:54.812Z,7.10
2023-10-07T07:01:38.813Z,7.95
2023-10-07T07:04:12.564Z,7.88
2023-10-07T07:06:44.057Z,7.72
2023-10-07T07:09:26.357Z,7.45
2023-10-07T07:11:56.790Z,8.05
2023-10-07T07:14:29.252Z,7.93
2023-10-07T07:16:58.384Z,8.27
2023-10-07T07:19:28.358Z,8.07
2023-10-07T07:21:58.573Z,6.88
2023-10-07T07:24:26.727Z,7.90
2023-10-07T07:26:54.197Z,8.77
2023-10-07T07:29:24.891Z,8.93
2023-10-07T07:31:52.902Z,8.38
2023-10-07T07:34:27.078Z,7.50
2023-10-07T07:37:04.402Z,8.10
2023-10-07T07:39:32.439Z,7.70
2023-10-07T07:42:16.619Z,7.65
2023-10-07T07:44:56.873Z,7.18
2023-10-07T07:47:28.746Z,7.85
2023-10-07T07:49:57.065Z,8.05
2023-10-07T07:52:26.579Z,7.95
2023-10-07T07:54:55.147Z,8.48
2023-10-07T07:57:25.871Z,6.90
2023-10-07T07:59:53.877Z,7.75
2023-10-07T08:02:25.467Z,8.15
2023-10-07T08:05:04.072Z,7.65
2023-10-07T08:07:34.301Z,8.30
2023-10-07T08:10:05.168Z,7.32
2023-10-07T08:12:35.555Z,8.23
2023-10-07T08:15:16.398Z,6.32
2023-10-07T08:17:46.299Z,7.85
2023-10-07T08:20:19.921Z,6.90
2023-10-07T08:22:53.215Z,7.93
2023-10-07T08:25:36.205Z,8.05
2023-10-07T08:28:19.420Z,8.55
2023-10-07T08:30:48.769Z,6.68
2023-10-07T08:33:17.302Z,6.47
2023-10-07T08:35:45.535Z,6.97
2023-10-07T08:38:23.921Z,7.32
2023-10-07T08:41:05.768Z,7.80
2023-10-07T08:43:39.049Z,7.90
2023-10-07T08:46:09.760Z,7.68
2023-10-07T08:48:39.981Z,7.10
2023-10-07T08:51:16.013Z,8.30
2023-10-07T08:53:49.025Z,8.15
2023-10-07T08:56:19.400Z,7.50
2023-10-07T08:58:50.712Z,6.70
2023-10-07T09:01:19.585Z,6.60
2023-10-07T09:03:53.474Z,7.35
2023-10-07T09:06:21.885Z,7.53
2023-10-07T09:08:51.281Z,7.18
2023-10-07T09:11:21.101Z,6.70
2023-10-07T09:13:51.282Z,6.38
2023-10-07T09:16:23.733Z,6.43
2023-10-07T09:18:57.174Z,6.70
2023-10-07T09:21:29.644Z,7.28
2023-10-07T09:24:02.959Z,6.90
2023-10-07T09:26:35.225Z,7.05
2023-10-07T09:29:15.919Z,7.10
2023-10-07T09:31:47.041Z,4.88
2023-10-07T09:34:31.426Z,7.22
2023-10-07T09:37:06.925Z,7.88
2023-10-07T09:39:45.261Z,6.38
2023-10-07T09:42:37.688Z,6.57
2023-10-07T09:45:17.998Z,6.95
2023-10-07T09:47:46.538Z,7.50
2023-10-07T09:50:26.875Z,6.10
2023-10-07T09:53:17.457Z,6.50
2023-10-07T09:56:05.325Z,6.13
2023-10-07T09:58:48.455Z,6.50
2023-10-07T10:01:40.305Z,7.38
2023-10-07T10:04:33.770Z,6.28
2023-10-07T10:07:29.556Z,6.15
2023-10-07T10:10:06.644Z,5.30
2023-10-07T10:12:57.662Z,6.30
2023-10-07T10:15:54.512Z,6.30
2023-10-07T10:18:41.411Z,9.40
2023-10-07T10:21:13.436Z,34.22
2023-10-07T10:23:45.435Z,6.60
2023-10-07T10:26:22.641Z,6.65
2023-10-07T10:29:05.385Z,5.18
2023-10-07T10:31:36.151Z,6.38
2023-10-07T10:34:07.235Z,6.00
2023-10-07T10:36:42.797Z,6.45
2023-10-07T10:41:59.644Z,5.15
2023-10-07T10:44:37.058Z,6.18
2023-10-07T10:47:06.453Z,5.72
2023-10-07T10:49:36.619Z,5.35
2023-10-07T10:52:05.731Z,4.05
2023-10-07T10:54:37.123Z,4.47
2023-10-07T10:57:09.015Z,4.00
2023-10-07T10:59:44.061Z,3.38
2023-10-07T11:02:13.400Z,4.18
2023-10-07T11:04:42.208Z,3.97
2023-10-07T11:07:10.313Z,4.22
2023-10-07T11:09:40.079Z,4.18
2023-10-07T11:12:14.069Z,4.38
2023-10-07T11:14:45.588Z,4.30
2023-10-07T11:17:17.510Z,5.13
2023-10-07T11:19:48.563Z,5.15
2023-10-07T11:22:20.616Z,4.80
2023-10-07T11:24:51.868Z,4.28
2023-10-07T11:27:25.623Z,4.28
2023-10-07T11:30:03.111Z,4.68
2023-10-07T11:32:31.658Z,4.25
2023-10-07T11:35:01.096Z,4.18
2023-10-07T11:37:29.522Z,4.35
2023-10-07T11:39:58.028Z,4.47
2023-10-07T11:42:25.957Z,4.25
2023-10-07T11:44:57.233Z,3.63
2023-10-07T11:47:28.402Z,3.33
2023-10-07T11:49:57.528Z,2.75
2023-10-07T11:52:29.069Z,3.15
2023-10-07T11:54:57.207Z,2.80
2023-10-07T11:57:25.406Z,2.70
2023-10-07T11:59:53.992Z,2.65
2023-10-07T12:02:25.140Z,3.13
2023-10-07T12:05:00.368Z,2.63
2023-10-07T12:07:31.453Z,2.50
2023-10-07T12:10:00.008Z,2.67
2023-10-07T12:12:31.933Z,2.50
2023-10-07T12:15:00.690Z,2.33
2023-10-07T12:17:28.669Z,2.58
2023-10-07T12:19:58.118Z,3.08
2023-10-07T12:22:26.431Z,2.65
2023-10-07T12:24:54.598Z,2.53
2023-10-07T12:27:22.584Z,2.47
2023-10-07T12:29:50.542Z,3.03
2023-10-07T12:32:18.584Z,3.08
2023-10-07T12:34:49.255Z,2.97
2023-10-07T12:37:18.905Z,2.50
2023-10-07T12:39:51.722Z,2.50
2023-10-07T12:42:20.167Z,2.70
2023-10-07T12:44:48.091Z,2.65
2023-10-07T12:47:16.421Z,3.08
2023-10-07T12:49:46.549Z,2.30
2023-10-07T12:52:17.912Z,2.55
2023-10-07T12:54:49.246Z,3.10
2023-10-07T12:57:17.167Z,2.67
2023-10-07T12:59:48.306Z,2.45
2023-10-07T13:02:18.669Z,2.47
2023-10-07T13:04:49.018Z,2.65
2023-10-07T13:07:19.733Z,2.60
2023-10-07T13:09:49.473Z,2.97
2023-10-07T13:12:20.025Z,3.00
2023-10-07T13:14:48.059Z,2.28
2023-10-07T13:17:17.253Z,2.50
2023-10-07T13:19:49.361Z,2.58
2023-10-07T13:22:19.452Z,2.65
2023-10-07T13:24:48.777Z,2.20
2023-10-07T13:27:17.573Z,3.22
2023-10-07T13:29:48.840Z,2.97
2023-10-07T13:32:18.614Z,2.28
2023-10-07T13:34:47.046Z,2.35
2023-10-07T13:37:14.963Z,2.47
2023-10-07T13:39:42.961Z,2.28
2023-10-07T13:42:12.539Z,2.38
2023-10-07T13:44:42.169Z,2.42
2023-10-07T13:47:10.240Z,2.67
2023-10-07T13:49:39.512Z,2.33
2023-10-07T13:52:10.874Z,2.13
2023-10-07T13:54:48.261Z,2.25
2023-10-07T13:57:25.590Z,2.53
2023-10-07T13:59:53.869Z,2.63
2023-10-07T14:02:22.311Z,2.30
2023-10-07T14:04:54.141Z,2.67
2023-10-07T14:07:22.542Z,2.55
2023-10-07T14:09:50.863Z,2.55
2023-10-07T14:12:20.104Z,2.78
2023-10-07T14:14:53.413Z,2.38
2023-10-07T14:17:22.688Z,3.00
2023-10-07T14:19:50.850Z,3.15
2023-10-07T14:22:19.350Z,2.58
2023-10-07T14:24:49.095Z,2.55
2023-10-07T14:27:18.367Z,3.05
2023-10-07T14:29:58.272Z,2.58
2023-10-07T14:32:29.032Z,2.67
2023-10-07T14:34:57.669Z,3.35
2023-10-07T14:37:26.118Z,3.53
2023-10-07T14:39:57.740Z,2.78
2023-10-07T14:42:27.072Z,3.17
2023-10-07T14:44:58.206Z,2.85
2023-10-07T14:47:26.884Z,2.83
2023-10-07T14:49:55.848Z,2.75
2023-10-07T14:52:24.337Z,2.50
2023-10-07T14:54:55.891Z,2.45
2023-10-07T14:57:24.198Z,2.92
2023-10-07T14:59:52.499Z,2.33
2023-10-07T15:02:21.849Z,2.85
2023-10-07T15:04:53.027Z,2.88
2023-10-07T15:07:21.721Z,2.58
2023-10-07T15:09:51.069Z,2.38
2023-10-07T15:12:21.020Z,3.53
2023-10-07T15:14:49.104Z,2.47
2023-10-07T15:17:17.844Z,2.63
2023-10-07T15:19:54.282Z,2.80
2023-10-07T15:22:22.401Z,2.55
2023-10-07T15:24:50.466Z,2.90
2023-10-07T15:27:18.669Z,2.22
2023-10-07T15:29:46.566Z,2.65
2023-10-07T15:32:14.575Z,2.90
2023-10-07T15:34:42.518Z,2.75
2023-10-07T15:37:12.190Z,2.65
2023-10-07T15:39:40.097Z,2.30
2023-10-07T15:42:13.585Z,2.60
2023-10-07T15:44:42.002Z,2.72
2023-10-07T15:47:10.682Z,3.05
2023-10-07T15:49:38.750Z,2.78
2023-10-07T15:52:09.702Z,2.35
2023-10-07T15:54:39.453Z,2.58
2023-10-07T15:57:09.910Z,2.92
2023-10-07T15:59:38.873Z,3.00
2023-10-07T16:02:09.794Z,2.78
2023-10-07T16:04:37.945Z,2.85
2023-10-07T16:07:06.199Z,2.60
2023-10-07T16:09:34.507Z,2.50
2023-10-07T16:12:05.308Z,2.80
2023-10-07T16:14:36.641Z,2.50
2023-10-07T16:17:06.567Z,2.85
2023-10-07T16:19:34.611Z,2.45
2023-10-07T16:22:03.037Z,2.70
2023-10-07T16:24:31.388Z,2.90
2023-10-07T16:26:59.341Z,2.60
2023-10-07T16:29:31.276Z,2.83
2023-10-07T16:31:59.722Z,3.00
2023-10-07T16:34:28.166Z,2.33
2023-10-07T16:36:56.515Z,2.40
2023-10-07T16:39:26.838Z,2.28
2023-10-07T16:41:55.595Z,2.35
2023-10-07T16:44:23.794Z,2.47
2023-10-07T16:46:54.180Z,2.45
2023-10-07T16:49:23.272Z,2.60
2023-10-07T16:51:52.634Z,2.70
2023-10-07T16:54:20.575Z,2.40
2023-10-07T16:56:48.738Z,2.95
2023-10-07T16:59:18.841Z,2.45
2023-10-07T17:01:46.809Z,2.25
2023-10-07T17:04:16.117Z,2.55
2023-10-07T17:06:44.090Z,2.45
2023-10-07T17:09:13.291Z,2.88
2023-10-07T17:11:44.285Z,3.13
2023-10-07T17:14:12.349Z,3.20
2023-10-07T17:16:40.428Z,3.95
2023-10-07T17:19:08.532Z,3.22
2023-10-07T17:21:38.873Z,4.25
2023-10-07T17:24:09.925Z,3.20
2023-10-07T17:26:39.385Z,3.17
2023-10-07T17:29:10.317Z,3.30
2023-10-07T17:31:38.652Z,3.03
2023-10-07T17:34:08.109Z,2.85
2023-10-07T17:36:39.308Z,2.97
2023-10-07T17:39:12.360Z,2.42
2023-10-07T17:41:47.873Z,2.75
2023-10-07T17:44:19.173Z,2.92
2023-10-07T17:46:47.848Z,2.55
2023-10-07T17:49:16.113Z,2.20
2023-10-07T17:51:50.009Z,3.38
2023-10-07T17:54:19.208Z,2.40
2023-10-07T17:56:47.604Z,2.53
2023-10-07T17:59:15.888Z,3.25
2023-10-07T18:01:46.293Z,2.45
2023-10-07T18:04:15.239Z,2.72
2023-10-07T18:06:43.153Z,2.90
2023-10-07T18:09:15.812Z,2.60
2023-10-07T18:11:53.741Z,2.35
2023-10-07T18:14:22.065Z,1.90
2023-10-07T18:16:51.817Z,2.47
2023-10-07T18:19:19.947Z,2.15
2023-10-07T18:21:48.902Z,2.05
2023-10-07T18:24:18.390Z,2.70
2023-10-07T18:26:47.328Z,2.38
2023-10-07T18:29:15.324Z,2.78
2023-10-07T18:31:44.170Z,2.92
2023-10-07T18:34:15.759Z,2.70
2023-10-07T18:36:44.624Z,2.50
2023-10-07T18:39:14.910Z,2.33
2023-10-07T18:41:44.790Z,2.85
2023-10-07T18:44:13.381Z,2.92
2023-10-07T18:46:43.648Z,2.95
2023-10-07T18:49:12.094Z,3.00
2023-10-07T18:51:45.839Z,2.80
2023-10-07T18:54:14.663Z,2.63
2023-10-07T18:56:43.995Z,3.03
2023-10-07T18:59:15.099Z,2.33
2023-10-07T19:01:43.069Z,2.38
2023-10-07T19:04:11.475Z,3.25
2023-10-07T19:06:41.235Z,2.22
2023-10-07T19:09:10.453Z,2.58
2023-10-07T19:11:40.193Z,3.13
2023-10-07T19:14:11.080Z,2.72
2023-10-07T19:16:41.294Z,2.58
2023-10-07T19:19:14.843Z,2.50
2023-10-07T19:21:44.821Z,2.97
2023-10-07T19:24:12.994Z,3.05
2023-10-07T19:26:42.356Z,2.63
2023-10-07T19:29:12.953Z,3.53
2023-10-07T19:31:43.199Z,2.90
2023-10-07T19:34:12.979Z,2.65
2023-10-07T19:36:41.903Z,2.75
2023-10-07T19:39:10.691Z,3.00
2023-10-07T19:41:41.149Z,2.50
2023-10-07T19:44:09.944Z,2.50
2023-10-07T19:46:39.349Z,2.78
2023-10-07T19:49:08.025Z,2.83
2023-10-07T19:51:37.848Z,3.17
2023-10-07T19:54:07.244Z,3.33
2023-10-07T19:56:37.137Z,2.97
2023-10-07T19:59:05.224Z,3.13
2023-10-07T20:01:33.175Z,2.15
2023-10-07T20:04:04.796Z,2.88
2023-10-07T20:06:34.447Z,3.08
2023-10-07T20:09:06.257Z,2.42
2023-10-07T20:11:34.313Z,3.45
2023-10-07T20:14:03.910Z,2.60
2023-10-07T20:16:34.783Z,2.50
2023-10-07T20:19:06.339Z,2.15
2023-10-07T20:21:34.574Z,2.83
2023-10-07T20:24:03.563Z,2.47
2023-10-07T20:26:32.533Z,2.58
2023-10-07T20:29:02.160Z,2.58
2023-10-07T20:31:30.508Z,2.53
2023-10-07T20:33:59.986Z,2.67
2023-10-07T20:36:36.596Z,3.55
2023-10-07T20:39:11.568Z,3.42
2023-10-07T20:41:41.627Z,3.75
2023-10-07T20:44:10.688Z,3.63
2023-10-07T20:46:38.713Z,3.50
2023-10-07T20:49:07.768Z,3.17
2023-10-07T20:51:40.942Z,2.95
2023-10-07T20:54:09.302Z,3.83
2023-10-07T20:56:39.759Z,3.40
2023-10-07T20:59:10.161Z,3.80
2023-10-07T21:01:42.004Z,3.25
2023-10-07T21:04:10.703Z,3.65
2023-10-07T21:06:41.571Z,3.42
2023-10-07T21:09:12.092Z,3.30
2023-10-07T21:11:40.963Z,2.80
2023-10-07T21:14:09.044Z,2.70
2023-10-07T21:16:39.752Z,2.53
2023-10-07T21:19:07.871Z,2.50
2023-10-07T21:21:37.347Z,2.45
2023-10-07T21:24:19.032Z,2.35
2023-10-07T21:26:55.072Z,2.63
2023-10-07T21:29:24.205Z,3.20
2023-10-07T21:31:52.290Z,2.83
2023-10-07T21:34:20.299Z,3.13
2023-10-07T21:36:48.222Z,2.80
2023-10-07T21:39:17.619Z,2.75
2023-10-07T21:41:45.670Z,3.08
2023-10-07T21:44:14.250Z,2.70
2023-10-07T21:46:45.175Z,2.83
2023-10-07T21:49:13.695Z,3.30
2023-10-07T21:51:44.070Z,2.47
2023-10-07T21:54:12.521Z,2.97
2023-10-07T21:56:43.577Z,2.65
2023-10-07T21:59:14.746Z,2.72
2023-10-07T22:01:44.304Z,2.20
2023-10-07T22:04:18.120Z,2.55
2023-10-07T22:06:50.352Z,2.25
2023-10-07T22:09:21.218Z,2.10
2023-10-07T22:11:50.965Z,3.10
2023-10-07T22:14:20.544Z,2.50
2023-10-07T22:16:50.402Z,2.97
2023-10-07T22:19:20.135Z,2.72
2023-10-07T22:21:49.777Z,3.00
2023-10-07T22:24:18.747Z,2.60
2023-10-07T22:26:46.723Z,2.60
2023-10-07T22:29:19.700Z,2.33
2023-10-07T22:31:55.630Z,2.95
2023-10-07T22:34:24.104Z,2.28
2023-10-07T22:36:55.884Z,2.97
2023-10-07T22:39:31.698Z,2.75
2023-10-07T22:42:13.640Z,3.35
2023-10-07T22:44:46.956Z,2.35
2023-10-07T22:47:15.333Z,3.15
